Time;durP1;ratioP1;P1;durP2;ratioP2;P2;SDS_P1;SDS_P2;PMS_P1;PMS_P2;Temp;Humidity;BMP_temperature;BMP_pressure;BME280_temperature;BME280_humidity;BME280_pressure;Samples;Min_cycle;Max_cycle;Signal;HPM_P1;HPM_P2
2022/01/13 00:01:40;;;;;;;18.37;9.90;;;6.80;54.40;;;;;;5055139;28;20786;-87
2022/01/13 00:04:09;;;;;;;15.60;9.47;;;6.70;54.70;;;;;;5077449;28;20597;-87
2022/01/13 00:06:37;;;;;;;16.53;10.87;;;6.80;54.80;;;;;;5073692;28;20519;-87
2022/01/13 00:09:05;;;;;;;15.70;9.17;;;6.80;54.60;;;;;;5074522;28;20444;-88
2022/01/13 00:11:32;;;;;;;17.33;9.77;;;6.70;55.00;;;;;;5075232;28;20456;-88
2022/01/13 00:14:23;;;;;;;16.13;9.53;;;6.70;55.10;;;;;;5070409;28;20466;-88
2022/01/13 00:17:12;;;;;;;17.03;9.77;;;6.70;55.20;;;;;;5071066;28;20460;-87
2022/01/13 00:19:57;;;;;;;18.00;10.20;;;6.80;55.20;;;;;;5072540;28;20475;-88
2022/01/13 00:22:42;;;;;;;19.70;9.23;;;6.80;55.00;;;;;;5073392;28;20472;-88
2022/01/13 00:25:12;;;;;;;11.23;8.90;;;6.80;55.20;;;;;;5073301;28;20940;-87
2022/01/13 00:27:44;;;;;;;19.00;10.00;;;6.80;54.90;;;;;;5076880;28;20459;-87
2022/01/13 00:30:16;;;;;;;18.40;10.20;;;6.70;55.10;;;;;;5074315;28;20483;-87
2022/01/13 00:32:44;;;;;;;21.57;10.77;;;6.60;55.40;;;;;;5056324;28;20786;-88
2022/01/13 00:35:11;;;;;;;27.37;11.60;;;6.50;55.80;;;;;;5079313;28;20471;-88
2022/01/13 00:37:40;;;;;;;19.23;10.77;;;6.60;55.80;;;;;;5073535;28;20579;-87
2022/01/13 00:40:09;;;;;;;16.93;10.20;;;6.70;55.50;;;;;;5076281;28;21086;-86
2022/01/13 00:42:36;;;;;;;19.17;10.00;;;6.70;55.50;;;;;;5075998;28;20469;-87
2022/01/13 00:45:03;;;;;;;17.30;9.60;;;6.70;55.50;;;;;;5074397;28;20491;-87
2022/01/13 00:47:31;;;;;;;19.40;9.43;;;6.80;55.40;;;;;;5077275;28;20448;-88
2022/01/13 00:49:58;;;;;;;23.63;11.37;;;6.90;55.20;;;;;;5071579;28;20464;-87
2022/01/13 00:52:26;;;;;;;20.53;10.03;;;6.80;55.20;;;;;;5073528;28;21100;-85
2022/01/13 00:54:56;;;;;;;15.23;9.10;;;6.60;55.60;;;;;;5069220;28;21389;-88
2022/01/13 00:57:23;;;;;;;16.17;9.13;;;6.70;55.80;;;;;;5070186;28;20571;-87
2022/01/13 00:59:50;;;;;;;11.67;9.13;;;6.80;55.50;;;;;;5075539;28;20476;-87
2022/01/13 01:02:17;;;;;;;17.47;9.63;;;6.90;55.20;;;;;;5075974;28;20468;-87
2022/01/13 01:04:44;;;;;;;14.13;9.40;;;6.90;55.20;;;;;;5078733;28;21256;-87
2022/01/13 01:07:11;;;;;;;17.23;10.40;;;6.80;55.50;;;;;;5076731;28;20475;-87
2022/01/13 01:09:41;;;;;;;17.13;8.57;;;6.70;55.80;;;;;;5077191;28;20464;-87
2022/01/13 01:12:11;;;;;;;17.40;9.70;;;6.70;55.90;;;;;;5079140;28;20455;-87
2022/01/13 01:14:45;;;;;;;18.70;9.17;;;6.80;55.90;;;;;;5077616;28;20970;-86
2022/01/13 01:17:14;;;;;;;15.27;9.73;;;6.90;55.70;;;;;;5077888;28;20542;-87
2022/01/13 01:19:44;;;;;;;15.60;9.20;;;6.90;55.40;;;;;;5077447;28;20545;-87
2022/01/13 01:22:38;;;;;;;13.97;8.50;;;6.80;55.60;;;;;;5078538;28;20491;-88
2022/01/13 01:28:10;;;;;;;13.97;8.90;;;6.70;56.20;;;;;;5014849;28;20543;-88
2022/01/13 01:30:40;;;;;;;20.07;10.60;;;6.70;56.30;;;;;;5067986;28;20498;-87
2022/01/13 01:33:12;;;;;;;19.00;9.20;;;6.70;56.10;;;;;;5075110;28;20527;-88
2022/01/13 01:35:39;;;;;;;17.60;10.27;;;6.80;56.20;;;;;;5079409;28;20466;-87
2022/01/13 01:38:07;;;;;;;18.30;10.40;;;6.80;55.80;;;;;;5074021;28;21072;-87
2022/01/13 01:40:34;;;;;;;19.50;10.47;;;6.90;55.90;;;;;;5080227;28;20476;-88
2022/01/13 01:43:01;;;;;;;18.70;9.93;;;7.00;55.60;;;;;;5073931;28;20454;-86
2022/01/13 01:45:33;;;;;;;22.73;11.37;;;7.10;55.50;;;;;;5060108;28;20465;-87
2022/01/13 01:48:03;;;;;;;17.73;10.33;;;7.10;55.30;;;;;;5076492;28;20471;-87
2022/01/13 01:50:35;;;;;;;25.93;10.00;;;7.20;55.00;;;;;;5072717;28;20947;-87
2022/01/13 01:53:03;;;;;;;29.23;11.50;;;7.20;54.90;;;;;;5075266;28;20470;-87
2022/01/13 01:55:30;;;;;;;20.30;10.47;;;7.10;54.80;;;;;;5076629;28;20460;-87
2022/01/13 01:58:00;;;;;;;20.57;10.97;;;7.00;55.10;;;;;;5073314;28;20456;-87
2022/01/13 02:00:29;;;;;;;19.43;10.70;;;6.90;55.40;;;;;;5057067;28;21180;-87
2022/01/13 02:02:56;;;;;;;16.10;10.07;;;6.80;55.50;;;;;;5075540;28;20448;-87
2022/01/13 02:05:23;;;;;;;14.07;9.50;;;7.00;55.50;;;;;;5075558;28;20460;-87
2022/01/13 02:07:51;;;;;;;18.90;10.50;;;7.10;55.20;;;;;;5079923;28;20539;-87
2022/01/13 02:10:18;;;;;;;14.97;9.83;;;7.10;55.10;;;;;;5075209;28;21308;-87
2022/01/13 02:12:50;;;;;;;14.70;10.07;;;7.00;55.20;;;;;;5073772;28;20458;-88
2022/01/13 02:15:31;;;;;;;18.27;10.60;;;7.10;55.10;;;;;;5075504;28;21133;-87
2022/01/13 02:18:01;;;;;;;24.10;9.80;;;7.10;55.10;;;;;;5079209;28;20487;-88
2022/01/13 02:20:48;;;;;;;19.07;10.50;;;6.90;55.50;;;;;;5073783;28;20471;-86
2022/01/13 02:23:27;;;;;;;19.07;11.57;;;7.00;55.60;;;;;;5078194;28;20456;-86
2022/01/13 02:25:54;;;;;;;20.20;10.90;;;7.10;55.40;;;;;;5077602;28;20454;-88
2022/01/13 02:28:21;;;;;;;18.53;9.50;;;7.10;55.40;;;;;;5076635;28;20460;-86
2022/01/13 02:30:48;;;;;;;21.90;12.40;;;7.00;55.30;;;;;;5077846;28;20495;-88
2022/01/13 02:33:15;;;;;;;21.57;13.33;;;6.90;55.70;;;;;;5080821;28;20540;-88
2022/01/13 02:35:42;;;;;;;25.80;12.30;;;6.80;55.90;;;;;;5075321;28;20559;-87
2022/01/13 02:38:12;;;;;;;17.67;10.30;;;6.90;56.00;;;;;;5076217;28;20467;-88
2022/01/13 02:40:40;;;;;;;15.80;9.57;;;7.00;55.80;;;;;;5075734;28;21164;-88
2022/01/13 02:43:08;;;;;;;14.80;9.13;;;7.10;55.50;;;;;;5075227;28;20494;-89
2022/01/13 02:45:38;;;;;;;15.50;8.40;;;7.20;55.30;;;;;;5078228;28;20465;-87
2022/01/13 02:50:52;;;;;;;13.80;9.53;;;7.30;55.20;;;;;;5075647;28;20472;-87
2022/01/13 02:53:21;;;;;;;13.03;8.73;;;7.30;55.00;;;;;;5074806;28;20457;-88
2022/01/13 02:55:48;;;;;;;19.23;9.90;;;7.30;55.10;;;;;;5072346;28;20536;-87
2022/01/13 02:58:16;;;;;;;14.33;9.67;;;7.10;55.50;;;;;;5072098;28;20966;-87
2022/01/13 03:00:43;;;;;;;20.30;11.60;;;6.80;56.30;;;;;;5076052;28;20468;-87
2022/01/13 03:03:12;;;;;;;13.43;9.73;;;6.80;56.30;;;;;;5060787;28;21051;-88
2022/01/13 03:05:39;;;;;;;18.47;9.53;;;7.00;56.10;;;;;;5077513;28;20456;-87
2022/01/13 03:08:07;;;;;;;14.90;8.77;;;7.10;55.80;;;;;;5071310;28;20452;-88
2022/01/13 03:10:36;;;;;;;11.20;8.80;;;7.20;55.60;;;;;;5074337;28;20703;-87
2022/01/13 03:13:03;;;;;;;21.03;10.70;;;7.20;55.60;;;;;;5074898;28;20943;-87
2022/01/13 03:15:30;;;;;;;16.10;9.63;;;7.30;55.50;;;;;;5077666;28;20484;-88
2022/01/13 03:17:57;;;;;;;14.03;9.17;;;7.40;55.40;;;;;;5074765;28;20448;-88
2022/01/13 03:20:25;;;;;;;16.00;9.60;;;7.40;55.30;;;;;;5072773;28;20472;-87
2022/01/13 03:22:52;;;;;;;17.20;10.63;;;7.40;55.10;;;;;;5073311;28;20479;-87
2022/01/13 03:25:22;;;;;;;14.90;10.70;;;7.30;55.20;;;;;;5070188;28;20465;-88
2022/01/13 03:28:04;;;;;;;16.60;10.60;;;7.30;55.40;;;;;;5073379;28;21158;-87
2022/01/13 03:30:31;;;;;;;19.33;10.07;;;7.30;55.30;;;;;;5073120;28;20987;-87
2022/01/13 03:32:59;;;;;;;15.53;9.40;;;7.30;55.40;;;;;;5054818;28;20818;-88
2022/01/13 03:35:26;;;;;;;33.70;10.60;;;7.30;55.60;;;;;;5071863;28;20544;-86
2022/01/13 03:37:53;;;;;;;19.00;12.37;;;7.30;55.50;;;;;;5074662;28;20461;-88
2022/01/13 03:40:20;;;;;;;24.33;11.83;;;7.20;55.20;;;;;;5072456;28;20480;-87
2022/01/13 03:42:48;;;;;;;15.73;10.10;;;7.20;55.40;;;;;;5060243;28;20451;-87
2022/01/13 03:45:16;;;;;;;18.03;12.13;;;7.30;55.60;;;;;;5074206;28;20971;-88
2022/01/13 03:47:43;;;;;;;20.57;11.00;;;7.30;55.40;;;;;;5072551;28;20961;-88
2022/01/13 03:50:10;;;;;;;19.37;11.87;;;7.30;55.30;;;;;;5071975;28;20843;-88
2022/01/13 03:53:09;;;;;;;20.60;11.17;;;7.30;55.20;;;;;;5072622;28;20495;-88
2022/01/13 03:56:20;;;;;;;16.37;8.50;;;7.20;55.50;;;;;;5073675;28;20449;-85
2022/01/13 03:59:26;;;;;;;18.20;9.90;;;7.10;55.50;;;;;;5031006;28;20456;-88
2022/01/13 04:02:06;;;;;;;17.50;10.53;;;7.20;55.70;;;;;;5071898;28;20485;-87
2022/01/13 04:04:35;;;;;;;20.70;11.97;;;7.10;55.70;;;;;;5055680;28;20467;-85
2022/01/13 04:07:11;;;;;;;18.37;11.60;;;7.10;55.80;;;;;;5079704;28;20486;-88
2022/01/13 04:10:20;;;;;;;20.80;13.33;;;7.20;55.70;;;;;;5055966;28;20795;-85
2022/01/13 04:12:47;;;;;;;19.53;10.50;;;7.30;55.60;;;;;;5000484;28;20546;-87
2022/01/13 04:15:17;;;;;;;29.33;14.63;;;7.40;55.50;;;;;;5056270;28;20456;-90
2022/01/13 04:17:46;;;;;;;27.93;16.00;;;7.40;55.60;;;;;;5075252;28;20892;-87
2022/01/13 04:20:13;;;;;;;30.13;15.90;;;7.40;55.50;;;;;;5071849;28;20487;-88
2022/01/13 04:22:40;;;;;;;59.27;25.30;;;7.50;55.30;;;;;;5076526;28;20458;-89
2022/01/13 04:25:08;;;;;;;45.93;21.03;;;7.50;55.30;;;;;;5073063;28;20448;-88
2022/01/13 04:27:41;;;;;;;24.47;14.47;;;7.40;55.20;;;;;;5054052;28;20464;-88
2022/01/13 04:30:34;;;;;;;31.87;14.53;;;7.40;55.00;;;;;;5074837;28;20480;-88
2022/01/13 04:33:04;;;;;;;31.77;12.37;;;7.30;55.30;;;;;;5073972;28;20481;-87
2022/01/13 04:35:31;;;;;;;21.30;10.70;;;7.30;55.70;;;;;;5074885;28;20452;-88
2022/01/13 04:37:59;;;;;;;20.13;11.50;;;7.20;55.30;;;;;;5059723;28;20448;-88
2022/01/13 04:40:26;;;;;;;15.80;10.10;;;7.00;56.30;;;;;;5075599;28;20567;-86
2022/01/13 04:42:56;;;;;;;19.57;11.17;;;7.10;56.00;;;;;;5077859;28;20459;-87
2022/01/13 04:45:27;;;;;;;18.00;11.20;;;7.00;55.70;;;;;;5076267;28;20469;-87
2022/01/13 04:47:56;;;;;;;21.63;11.40;;;7.00;55.50;;;;;;5074527;28;20930;-88
2022/01/13 04:50:25;;;;;;;20.13;11.00;;;7.10;55.80;;;;;;5075658;28;20842;-88
2022/01/13 04:52:52;;;;;;;14.73;10.37;;;7.20;55.80;;;;;;5079394;28;20466;-88
2022/01/13 04:55:24;;;;;;;17.40;10.83;;;7.20;55.60;;;;;;5079268;28;20448;-89
2022/01/13 04:57:53;;;;;;;15.90;9.50;;;7.30;55.60;;;;;;5066597;28;20467;-88
2022/01/13 05:00:22;;;;;;;17.70;10.83;;;7.30;55.50;;;;;;5076094;28;20557;-85
2022/01/13 05:02:49;;;;;;;19.07;10.30;;;7.30;55.20;;;;;;5061258;28;20822;-88
2022/01/13 05:05:16;;;;;;;15.97;11.60;;;7.30;55.30;;;;;;5077941;28;20460;-87
2022/01/13 05:07:45;;;;;;;19.50;11.73;;;7.20;55.50;;;;;;5077551;28;20463;-87
2022/01/13 05:10:12;;;;;;;21.33;13.13;;;7.20;55.50;;;;;;5077992;28;21277;-88
2022/01/13 05:12:42;;;;;;;14.90;10.83;;;7.30;55.50;;;;;;5076978;28;20449;-88
2022/01/13 05:15:14;;;;;;;21.40;11.60;;;7.20;55.80;;;;;;5074671;28;20536;-88
2022/01/13 05:20:45;;;;;;;16.90;10.83;;;7.30;55.80;;;;;;5077977;28;20531;-88
2022/01/13 05:23:15;;;;;;;22.90;11.57;;;7.20;55.70;;;;;;5076476;28;20555;-87
2022/01/13 05:25:43;;;;;;;15.93;10.13;;;7.10;56.10;;;;;;5056767;28;20455;-87
2022/01/13 05:28:11;;;;;;;17.13;10.37;;;7.10;56.30;;;;;;5075751;28;21029;-88
2022/01/13 05:30:38;;;;;;;18.57;10.53;;;7.20;56.10;;;;;;5078905;28;20467;-88
2022/01/13 05:33:06;;;;;;;16.23;10.00;;;7.30;56.00;;;;;;5080101;28;20480;-89
2022/01/13 05:35:34;;;;;;;16.50;12.10;;;7.40;55.90;;;;;;5081042;28;20463;-88
2022/01/13 05:38:01;;;;;;;18.67;10.70;;;7.40;55.70;;;;;;5073848;28;20456;-88
2022/01/13 05:40:30;;;;;;;17.97;11.00;;;7.40;55.70;;;;;;5062253;28;20841;-87
2022/01/13 05:42:57;;;;;;;17.87;11.17;;;7.40;55.80;;;;;;5074749;28;20997;-88
2022/01/13 05:45:29;;;;;;;22.00;11.87;;;7.40;55.60;;;;;;5075412;28;20465;-87
2022/01/13 05:47:57;;;;;;;22.40;12.00;;;7.40;55.70;;;;;;5073327;28;20481;-87
2022/01/13 05:50:25;;;;;;;19.37;11.50;;;7.40;55.80;;;;;;5078550;28;20475;-87
2022/01/13 05:52:52;;;;;;;22.70;13.10;;;7.40;55.60;;;;;;5073392;28;20942;-87
2022/01/13 05:55:20;;;;;;;18.63;12.00;;;7.50;55.40;;;;;;5058849;28;20452;-89
2022/01/13 05:57:49;;;;;;;18.90;10.47;;;7.50;55.20;;;;;;5074039;28;20459;-87
2022/01/13 06:00:19;;;;;;;19.13;11.43;;;7.50;55.30;;;;;;5074259;28;20484;-88
2022/01/13 06:02:47;;;;;;;15.83;9.73;;;7.50;55.20;;;;;;5080556;28;21010;-88
2022/01/13 06:05:15;;;;;;;12.90;8.87;;;7.50;55.00;;;;;;5045695;28;20451;-87
2022/01/13 06:07:43;;;;;;;18.60;10.57;;;7.50;54.80;;;;;;5078376;28;20448;-88
2022/01/13 06:10:14;;;;;;;15.13;9.67;;;7.50;54.80;;;;;;5076029;28;20468;-89
2022/01/13 06:12:41;;;;;;;16.83;10.60;;;7.50;54.70;;;;;;5080853;28;20478;-88
2022/01/13 06:15:12;;;;;;;16.73;8.83;;;7.50;54.40;;;;;;5058169;28;20467;-89
2022/01/13 06:17:41;;;;;;;20.57;11.30;;;7.50;54.50;;;;;;5080103;28;20583;-89
2022/01/13 06:20:10;;;;;;;27.23;9.83;;;7.40;54.70;;;;;;5076534;28;20959;-89
2022/01/13 06:22:39;;;;;;;15.90;10.30;;;7.50;54.70;;;;;;5061386;28;20456;-88
2022/01/13 06:25:07;;;;;;;16.13;8.73;;;7.50;54.70;;;;;;5075991;28;20457;-88
2022/01/13 06:27:35;;;;;;;22.10;11.93;;;7.40;54.60;;;;;;5075576;28;20988;-89
2022/01/13 06:30:02;;;;;;;19.10;12.20;;;7.40;54.80;;;;;;5065011;28;20477;-88
2022/01/13 06:32:30;;;;;;;32.03;15.07;;;7.50;54.70;;;;;;5074000;28;20456;-88
2022/01/13 06:34:57;;;;;;;27.70;12.97;;;7.50;54.80;;;;;;5074040;28;21037;-89
2022/01/13 06:37:25;;;;;;;35.30;17.40;;;7.50;54.70;;;;;;5076728;28;20448;-89
2022/01/13 06:39:52;;;;;;;29.20;15.80;;;7.40;54.80;;;;;;5073518;28;20469;-88
2022/01/13 06:42:19;;;;;;;32.17;14.33;;;7.40;54.90;;;;;;5073013;28;21039;-87
2022/01/13 06:44:46;;;;;;;38.60;19.73;;;7.50;54.90;;;;;;5075793;28;20455;-90
2022/01/13 06:47:13;;;;;;;13.57;8.70;;;7.50;54.80;;;;;;5070754;28;20507;-88
2022/01/13 06:49:41;;;;;;;15.37;9.17;;;7.10;53.40;;;;;;5068101;28;20991;-89
2022/01/13 06:52:09;;;;;;;17.53;10.47;;;6.90;53.90;;;;;;5074213;28;20456;-88
2022/01/13 06:54:36;;;;;;;12.87;10.13;;;7.10;54.20;;;;;;5081097;28;20452;-88
2022/01/13 06:57:03;;;;;;;11.80;8.47;;;7.20;54.20;;;;;;5070581;28;20440;-87
2022/01/13 06:59:30;;;;;;;15.80;9.60;;;7.30;53.90;;;;;;5073740;28;20472;-89
2022/01/13 07:02:00;;;;;;;13.03;9.47;;;7.30;53.80;;;;;;5076121;28;20449;-88
2022/01/13 07:04:27;;;;;;;15.87;9.30;;;7.20;53.50;;;;;;5077879;28;20543;-88
2022/01/13 07:06:56;;;;;;;20.43;9.93;;;7.20;53.70;;;;;;5076031;28;20543;-87
2022/01/13 07:09:23;;;;;;;17.07;9.97;;;7.20;53.70;;;;;;5071140;28;20600;-87
2022/01/13 07:11:51;;;;;;;12.63;9.27;;;7.30;53.70;;;;;;5072058;28;20543;-89
2022/01/13 07:14:18;;;;;;;21.90;10.40;;;7.20;53.90;;;;;;5074175;28;20453;-88
2022/01/13 07:16:46;;;;;;;16.20;10.60;;;7.20;54.00;;;;;;5056365;28;20466;-88
2022/01/13 07:19:15;;;;;;;24.03;12.63;;;7.20;54.40;;;;;;5058866;28;20481;-89
2022/01/13 07:21:43;;;;;;;25.00;14.43;;;7.20;54.40;;;;;;5075687;28;20547;-88
2022/01/13 07:24:12;;;;;;;22.47;12.40;;;7.30;54.30;;;;;;5078392;28;20463;-88
2022/01/13 07:26:39;;;;;;;18.17;10.83;;;7.30;54.20;;;;;;5071096;28;20449;-87
2022/01/13 07:29:07;;;;;;;16.87;10.27;;;7.10;53.70;;;;;;5068658;28;20458;-89
2022/01/13 07:31:35;;;;;;;14.40;10.00;;;7.00;53.90;;;;;;5069702;28;21019;-88
2022/01/13 07:34:03;;;;;;;17.57;10.97;;;7.10;54.20;;;;;;5073129;28;20546;-88
2022/01/13 07:36:30;;;;;;;14.70;8.90;;;7.10;54.50;;;;;;5070071;28;20804;-89
2022/01/13 07:38:57;;;;;;;14.07;8.87;;;7.20;54.50;;;;;;5071660;28;20456;-89
2022/01/13 07:41:26;;;;;;;15.70;8.93;;;7.10;53.50;;;;;;5070300;28;20476;-90
2022/01/13 07:43:55;;;;;;;15.13;8.37;;;7.00;53.90;;;;;;5052195;28;20966;-89
2022/01/13 07:46:23;;;;;;;16.27;9.80;;;6.90;54.60;;;;;;5068669;28;20539;-89
2022/01/13 07:48:50;;;;;;;19.80;10.40;;;7.00;54.60;;;;;;5069725;28;20468;-90
2022/01/13 07:51:18;;;;;;;18.40;9.33;;;7.00;54.60;;;;;;5051736;28;20919;-89
2022/01/13 07:53:45;;;;;;;15.13;9.83;;;7.00;54.60;;;;;;5050612;28;20463;-89
2022/01/13 07:56:12;;;;;;;17.80;10.97;;;7.10;54.40;;;;;;5068238;28;20465;-89
2022/01/13 07:58:43;;;;;;;14.70;10.90;;;7.20;54.40;;;;;;5070108;28;21316;-89
2022/01/13 08:01:10;;;;;;;16.37;11.53;;;7.20;54.00;;;;;;5070864;28;20503;-89
2022/01/13 08:03:37;;;;;;;19.97;11.30;;;7.30;54.00;;;;;;5058107;28;20452;-88
2022/01/13 08:06:05;;;;;;;17.67;10.33;;;7.20;54.00;;;;;;5059771;28;20459;-89
2022/01/13 08:08:35;;;;;;;25.23;13.23;;;7.30;54.30;;;;;;5073105;28;20551;-89
2022/01/13 08:11:03;;;;;;;17.87;11.10;;;7.40;54.40;;;;;;5052342;28;20463;-91
2022/01/13 08:13:30;;;;;;;14.57;9.53;;;7.50;54.10;;;;;;5054311;28;20992;-90
2022/01/13 08:16:01;;;;;;;15.37;10.73;;;7.50;54.00;;;;;;5073983;28;20452;-89
2022/01/13 08:21:13;;;;;;;12.13;8.57;;;7.50;53.80;;;;;;5071897;28;20487;-89
2022/01/13 08:23:41;;;;;;;19.10;11.47;;;7.50;53.50;;;;;;5075973;28;21129;-87
2022/01/13 08:26:08;;;;;;;15.47;9.20;;;7.50;54.30;;;;;;5072602;28;20499;-89
2022/01/13 08:28:35;;;;;;;18.37;11.37;;;7.30;53.30;;;;;;5079341;28;20825;-88
2022/01/13 08:31:04;;;;;;;16.30;9.33;;;7.40;53.60;;;;;;5073821;28;20479;-89
2022/01/13 08:33:32;;;;;;;16.90;9.80;;;7.50;53.70;;;;;;5075854;28;20456;-89
2022/01/13 08:35:59;;;;;;;14.93;10.57;;;7.50;53.30;;;;;;5041456;28;20455;-88
2022/01/13 08:38:26;;;;;;;18.83;10.87;;;7.50;53.50;;;;;;5063038;28;20530;-88
2022/01/13 08:40:56;;;;;;;21.33;11.50;;;7.40;53.40;;;;;;5077560;28;20472;-89
2022/01/13 08:43:24;;;;;;;17.00;10.07;;;7.40;53.70;;;;;;5073932;28;20543;-90
2022/01/13 08:45:52;;;;;;;15.93;9.93;;;7.40;53.90;;;;;;5074218;28;20468;-90
2022/01/13 08:48:21;;;;;;;10.67;7.40;;;7.30;53.90;;;;;;5060540;28;20444;-87
2022/01/13 08:50:49;;;;;;;13.77;9.47;;;7.40;53.90;;;;;;5075774;28;20472;-89
2022/01/13 08:53:17;;;;;;;18.20;10.30;;;7.10;53.60;;;;;;5076023;28;20461;-89
2022/01/13 08:55:44;;;;;;;20.07;9.20;;;7.20;54.20;;;;;;5059518;28;20948;-89
2022/01/13 08:58:11;;;;;;;15.67;9.97;;;7.30;54.00;;;;;;5079867;28;20456;-89
2022/01/13 09:00:38;;;;;;;15.50;9.60;;;7.40;53.70;;;;;;5075119;28;20525;-89
2022/01/13 09:03:08;;;;;;;17.00;10.03;;;7.50;53.70;;;;;;5073177;28;20490;-89
2022/01/13 09:05:38;;;;;;;15.80;9.53;;;7.50;53.80;;;;;;5081555;28;20456;-91
2022/01/13 09:08:06;;;;;;;12.57;8.27;;;7.40;53.50;;;;;;5078043;28;20463;-90
2022/01/13 09:10:34;;;;;;;16.43;9.87;;;7.10;53.30;;;;;;5060864;28;20472;-90
2022/01/13 09:13:01;;;;;;;16.40;9.57;;;7.00;53.90;;;;;;5078234;28;20458;-89
2022/01/13 09:15:35;;;;;;;22.00;12.00;;;6.70;54.70;;;;;;5081289;28;20448;-90
2022/01/13 09:18:08;;;;;;;17.90;9.63;;;6.60;55.30;;;;;;5059722;28;20474;-89
2022/01/13 09:20:38;;;;;;;20.07;12.20;;;6.70;55.10;;;;;;5063844;28;20622;-89
2022/01/13 09:23:05;;;;;;;17.93;10.57;;;6.80;55.70;;;;;;5062397;28;20478;-90
2022/01/13 09:25:33;;;;;;;17.27;10.27;;;6.80;54.90;;;;;;5080897;28;21015;-90
2022/01/13 09:28:01;;;;;;;13.53;8.60;;;6.90;55.00;;;;;;5074054;28;20955;-90
2022/01/13 09:30:28;;;;;;;23.70;11.47;;;6.90;55.20;;;;;;5057718;28;20487;-91
2022/01/13 09:32:55;;;;;;;17.33;10.20;;;7.10;54.90;;;;;;5062539;28;20891;-90
2022/01/13 09:35:22;;;;;;;16.27;9.00;;;7.20;54.60;;;;;;5083052;28;20463;-89
2022/01/13 09:37:51;;;;;;;12.40;8.50;;;7.30;54.50;;;;;;5038774;28;20459;-87
2022/01/13 09:40:18;;;;;;;19.90;11.03;;;7.40;54.30;;;;;;5061886;28;20559;-87
2022/01/13 09:42:46;;;;;;;13.20;9.20;;;7.30;54.00;;;;;;5062993;28;20985;-89
2022/01/13 09:45:16;;;;;;;14.03;9.30;;;7.40;53.90;;;;;;5086509;28;20455;-92
2022/01/13 09:47:44;;;;;;;13.33;9.63;;;7.40;53.80;;;;;;5055748;28;20448;-89
2022/01/13 09:50:16;;;;;;;15.50;10.10;;;7.60;53.80;;;;;;5056231;28;21005;-90
2022/01/13 09:52:44;;;;;;;13.57;9.37;;;7.20;53.70;;;;;;5059779;28;20447;-88
2022/01/13 09:55:16;;;;;;;14.87;9.80;;;7.10;54.40;;;;;;5047106;28;20464;-91
2022/01/13 09:57:44;;;;;;;12.10;8.43;;;7.10;54.40;;;;;;5040192;28;20884;-90
2022/01/13 10:00:14;;;;;;;13.17;7.20;;;7.10;54.40;;;;;;5050830;28;20469;-90
2022/01/13 10:02:41;;;;;;;16.47;8.00;;;7.20;54.40;;;;;;5086697;28;20471;-90
2022/01/13 10:05:09;;;;;;;11.83;9.40;;;7.20;53.90;;;;;;5040417;28;20458;-90
2022/01/13 10:07:38;;;;;;;23.83;11.30;;;7.30;54.00;;;;;;5057381;28;21169;-91
2022/01/13 10:10:08;;;;;;;16.40;9.27;;;7.20;54.20;;;;;;5060737;28;20467;-91
2022/01/13 10:12:39;;;;;;;19.30;11.23;;;7.00;54.40;;;;;;5089060;28;20460;-91
2022/01/13 10:17:53;;;;;;;78.30;27.60;;;7.10;54.90;;;;;;5055969;28;20505;-90
2022/01/13 10:20:22;;;;;;;20.93;11.43;;;7.20;54.60;;;;;;5047897;28;20468;-88
2022/01/13 10:22:50;;;;;;;14.40;8.70;;;7.40;54.00;;;;;;5050320;28;20464;-92
2022/01/13 10:25:30;;;;;;;13.90;9.00;;;7.20;53.80;;;;;;5050008;28;20457;-90
2022/01/13 10:28:16;;;;;;;12.60;8.10;;;7.20;54.30;;;;;;5063304;28;20811;-90
2022/01/13 10:30:44;;;;;;;14.83;7.93;;;7.30;54.30;;;;;;5064020;28;20480;-91
2022/01/13 10:33:17;;;;;;;15.90;7.77;;;7.50;53.70;;;;;;5045691;28;21210;-90
2022/01/13 10:35:44;;;;;;;13.50;8.90;;;7.60;52.90;;;;;;5085305;28;20450;-90
2022/01/13 10:38:16;;;;;;;13.83;7.77;;;7.50;53.20;;;;;;5086564;28;20553;-90
2022/01/13 10:40:46;;;;;;;12.97;8.33;;;7.30;53.70;;;;;;5041146;28;20481;-90
2022/01/13 10:43:16;;;;;;;15.73;9.23;;;7.10;54.20;;;;;;5030505;28;20453;-89
2022/01/13 10:45:49;;;;;;;16.43;9.00;;;7.20;54.60;;;;;;5044793;28;20471;-90
2022/01/13 10:48:19;;;;;;;11.13;7.80;;;7.30;54.30;;;;;;5065470;28;20534;-90
2022/01/13 10:50:50;;;;;;;11.80;9.60;;;7.30;53.70;;;;;;5061382;28;20471;-89
2022/01/13 10:53:20;;;;;;;14.23;9.90;;;7.50;53.90;;;;;;5047165;28;20459;-91
2022/01/13 10:55:51;;;;;;;15.57;10.03;;;7.30;53.90;;;;;;5053241;28;21083;-89
2022/01/13 10:58:24;;;;;;;14.60;10.63;;;7.20;54.10;;;;;;5048787;28;20542;-90
2022/01/13 11:00:53;;;;;;;17.33;9.50;;;7.30;54.10;;;;;;5052976;28;20476;-90
2022/01/13 11:03:22;;;;;;;16.23;9.93;;;7.20;54.20;;;;;;5062599;28;20543;-87
2022/01/13 11:05:51;;;;;;;15.90;10.50;;;7.10;54.50;;;;;;5067801;28;20885;-90
2022/01/13 11:08:25;;;;;;;17.07;9.80;;;7.00;54.70;;;;;;5067829;28;20841;-90
2022/01/13 11:10:54;;;;;;;24.73;13.10;;;7.10;54.50;;;;;;5063091;28;20567;-90
2022/01/13 11:13:24;;;;;;;21.07;13.27;;;7.10;54.30;;;;;;5064794;28;20543;-89
2022/01/13 11:15:55;;;;;;;15.77;10.80;;;7.30;54.60;;;;;;5063460;28;20510;-89
2022/01/13 11:18:24;;;;;;;18.10;11.03;;;7.40;54.30;;;;;;5056089;28;20468;-89
2022/01/13 11:20:52;;;;;;;26.13;10.40;;;7.40;54.60;;;;;;5053191;28;21252;-89
2022/01/13 11:23:21;;;;;;;24.13;12.10;;;7.50;54.00;;;;;;5033488;28;20464;-90
2022/01/13 11:25:50;;;;;;;19.73;11.57;;;7.70;53.70;;;;;;5047214;28;20582;-90
2022/01/13 11:28:17;;;;;;;18.17;11.80;;;7.70;53.40;;;;;;5045049;28;20484;-89
2022/01/13 11:30:47;;;;;;;20.40;12.40;;;7.90;53.50;;;;;;5068987;28;20475;-88
2022/01/13 11:33:14;;;;;;;22.93;12.37;;;7.70;53.50;;;;;;5078600;28;20487;-90
2022/01/13 11:35:48;;;;;;;20.27;11.83;;;7.60;54.00;;;;;;5042705;28;20438;-90
2022/01/13 11:38:18;;;;;;;17.80;12.53;;;7.60;54.10;;;;;;5055882;28;20447;-89
2022/01/13 11:40:47;;;;;;;24.90;12.40;;;7.30;54.60;;;;;;5076383;28;20708;-90
2022/01/13 11:43:38;;;;;;;22.13;12.07;;;7.30;55.30;;;;;;5051581;28;20550;-89
2022/01/13 11:46:15;;;;;;;19.30;11.53;;;7.50;55.00;;;;;;5041640;28;21166;-90
2022/01/13 11:48:57;;;;;;;18.63;11.63;;;7.90;53.90;;;;;;5044931;28;20455;-89
2022/01/13 11:51:24;;;;;;;27.63;13.40;;;8.00;53.60;;;;;;5036359;28;20480;-89
2022/01/13 11:53:56;;;;;;;35.43;18.97;;;8.00;53.20;;;;;;5057469;28;20530;-90
2022/01/13 11:56:24;;;;;;;24.27;13.30;;;7.70;53.80;;;;;;5071695;28;20449;-89
2022/01/13 11:58:52;;;;;;;25.97;13.13;;;7.90;53.90;;;;;;5084483;28;20470;-89
2022/01/13 12:01:23;;;;;;;22.47;12.97;;;7.80;53.80;;;;;;5065846;28;20566;-90
2022/01/13 12:03:52;;;;;;;22.00;13.00;;;7.70;53.70;;;;;;5036678;28;20457;-89
2022/01/13 12:06:34;;;;;;;25.67;14.50;;;7.80;53.80;;;;;;5072378;28;20449;-87
2022/01/13 12:09:03;;;;;;;19.20;11.90;;;7.70;53.90;;;;;;5079275;28;20821;-90
2022/01/13 12:11:50;;;;;;;25.97;12.60;;;7.60;54.50;;;;;;5075326;28;20462;-88
2022/01/13 12:14:41;;;;;;;20.60;12.10;;;7.80;54.30;;;;;;5061101;28;20443;-90
2022/01/13 12:17:19;;;;;;;20.20;11.10;;;7.90;53.80;;;;;;5069202;28;20462;-89
2022/01/13 12:19:50;;;;;;;18.37;12.20;;;8.10;53.40;;;;;;5076961;28;20467;-89
2022/01/13 12:22:23;;;;;;;20.40;11.40;;;8.20;53.10;;;;;;5059949;28;20484;-90
2022/01/13 12:24:53;;;;;;;18.30;11.67;;;8.10;53.10;;;;;;5073609;28;20459;-87
2022/01/13 12:27:23;;;;;;;17.77;10.67;;;8.20;53.30;;;;;;5075015;28;20470;-86
2022/01/13 12:30:05;;;;;;;21.23;11.50;;;8.40;53.00;;;;;;5052767;28;20471;-90
2022/01/13 12:32:42;;;;;;;20.77;11.77;;;8.60;52.90;;;;;;5074523;28;20456;-89
2022/01/13 12:35:11;;;;;;;22.80;13.03;;;8.80;52.10;;;;;;5042680;28;20466;-89
2022/01/13 12:37:39;;;;;;;22.70;13.17;;;8.90;52.00;;;;;;5054565;28;20471;-92
2022/01/13 12:40:19;;;;;;;24.70;13.40;;;8.90;51.90;;;;;;5063496;28;21028;-89
2022/01/13 12:42:52;;;;;;;22.47;13.00;;;9.10;51.80;;;;;;5063290;28;20825;-89
2022/01/13 12:45:29;;;;;;;18.50;11.23;;;9.20;51.60;;;;;;5058785;28;20877;-89
2022/01/13 12:48:00;;;;;;;19.63;12.33;;;8.80;51.80;;;;;;5066185;28;20982;-89
2022/01/13 12:50:30;;;;;;;24.50;13.50;;;8.70;52.10;;;;;;5061714;28;20475;-89
2022/01/13 12:53:06;;;;;;;20.70;13.40;;;8.80;52.40;;;;;;5075393;28;20536;-89
2022/01/13 12:55:33;;;;;;;25.33;12.63;;;9.00;52.10;;;;;;5055918;28;20456;-91
2022/01/13 12:58:01;;;;;;;20.63;11.67;;;9.30;51.90;;;;;;5075566;28;20452;-90
2022/01/13 13:00:28;;;;;;;18.87;11.47;;;9.40;51.00;;;;;;5076855;28;20567;-90
2022/01/13 13:03:06;;;;;;;21.30;12.23;;;9.40;51.20;;;;;;5061504;28;20474;-89
2022/01/13 13:05:37;;;;;;;25.67;17.03;;;9.60;51.00;;;;;;5063428;28;20828;-89
2022/01/13 13:08:05;;;;;;;21.60;11.90;;;9.50;50.40;;;;;;5047511;28;20455;-89
2022/01/13 13:10:33;;;;;;;18.70;11.60;;;9.70;50.80;;;;;;5078072;28;20465;-89